createdAt,value
2023-04-15T00:00:40.472Z,74.01
2023-04-15T00:01:40.660Z,74.01
2023-04-15T00:02:38.765Z,73.88
2023-04-15T00:03:39.119Z,73.90
2023-04-15T00:04:38.201Z,74.00
2023-04-15T00:05:38.559Z,74.07
2023-04-15T00:06:38.382Z,73.93
2023-04-15T00:07:37.761Z,73.86
2023-04-15T00:08:38.567Z,73.85
2023-04-15T00:09:38.187Z,73.80
2023-04-15T00:10:38.421Z,73.96
2023-04-15T00:11:38.298Z,74.05
2023-04-15T00:12:37.976Z,74.04
2023-04-15T00:13:38.041Z,74.01
2023-04-15T00:14:38.249Z,74.16
2023-04-15T00:15:38.054Z,74.27
2023-04-15T00:16:38.260Z,74.19
2023-04-15T00:17:37.980Z,74.06
2023-04-15T00:18:38.459Z,74.13
2023-04-15T00:19:37.959Z,74.17
2023-04-15T00:20:38.914Z,74.15
2023-04-15T00:21:38.776Z,74.14
2023-04-15T00:22:38.229Z,74.05
2023-04-15T00:23:37.784Z,74.09
2023-04-15T00:24:38.768Z,74.03
2023-04-15T00:25:38.649Z,74.16
2023-04-15T00:26:37.971Z,74.34
2023-04-15T00:27:37.629Z,74.48
2023-04-15T00:28:38.051Z,74.52
2023-04-15T00:29:37.398Z,74.46
2023-04-15T00:30:38.332Z,74.28
2023-04-15T00:31:38.436Z,74.31
2023-04-15T00:32:38.092Z,74.26
2023-04-15T00:33:37.800Z,74.27
2023-04-15T00:34:38.302Z,74.39
2023-04-15T00:35:38.473Z,74.52
2023-04-15T00:36:38.094Z,74.56
2023-04-15T00:37:37.910Z,74.47
2023-04-15T00:38:38.593Z,74.48
2023-04-15T00:39:38.267Z,74.52
2023-04-15T00:40:37.851Z,74.63
2023-04-15T00:41:38.310Z,74.66
2023-04-15T00:42:37.795Z,74.69
2023-04-15T00:43:38.192Z,74.71
2023-04-15T00:44:38.054Z,74.68
2023-04-15T00:45:37.888Z,74.73
2023-04-15T00:46:38.646Z,74.85
2023-04-15T00:47:38.239Z,75.02
2023-04-15T00:48:38.112Z,75.08
2023-04-15T00:49:37.746Z,75.10
2023-04-15T00:50:38.215Z,75.10
2023-04-15T00:51:37.843Z,75.11
2023-04-15T00:52:37.914Z,75.06
2023-04-15T00:53:38.479Z,75.11
2023-04-15T00:54:37.974Z,75.10
2023-04-15T00:55:38.833Z,75.23
2023-04-15T00:56:38.174Z,75.31
2023-04-15T00:57:37.734Z,75.34
2023-04-15T00:58:38.134Z,75.33
2023-04-15T00:59:37.802Z,75.32
2023-04-15T01:00:39.592Z,75.30
2023-04-15T01:01:37.984Z,75.33
2023-04-15T01:02:38.040Z,75.45
2023-04-15T01:03:38.134Z,75.55
2023-04-15T01:04:38.374Z,75.60
2023-04-15T01:05:38.569Z,75.66
2023-04-15T01:06:38.496Z,75.73
2023-04-15T01:07:38.417Z,75.77
2023-04-15T01:08:37.889Z,75.72
2023-04-15T01:09:38.466Z,75.75
2023-04-15T01:10:38.207Z,75.76
2023-04-15T01:11:38.237Z,75.54
2023-04-15T01:12:38.109Z,75.51
2023-04-15T01:13:37.530Z,75.53
2023-04-15T01:14:38.173Z,75.62
2023-04-15T01:15:38.456Z,75.79
2023-04-15T01:16:38.078Z,75.90
2023-04-15T01:17:37.944Z,75.89
2023-04-15T01:18:37.806Z,75.89
2023-04-15T01:19:38.877Z,75.81
2023-04-15T01:20:38.853Z,75.81
2023-04-15T01:21:38.557Z,75.95
2023-04-15T01:22:38.221Z,75.98
2023-04-15T01:23:37.766Z,75.88
2023-04-15T01:24:38.367Z,75.91
2023-04-15T01:25:38.436Z,75.94
2023-04-15T01:26:38.346Z,75.97
2023-04-15T01:27:37.795Z,76.05
2023-04-15T01:28:38.578Z,75.95
2023-04-15T01:29:38.194Z,76.04
2023-04-15T01:30:38.333Z,76.11
2023-04-15T01:31:38.178Z,76.03
2023-04-15T01:32:38.237Z,75.87
2023-04-15T01:33:38.181Z,75.94
2023-04-15T01:34:38.172Z,75.93
2023-04-15T01:35:38.158Z,75.88
2023-04-15T01:36:38.092Z,75.90
2023-04-15T01:37:38.025Z,75.82
2023-04-15T01:38:37.584Z,75.85
2023-04-15T01:39:38.127Z,75.92
2023-04-15T01:40:38.021Z,76.01
2023-04-15T01:41:37.766Z,76.00
2023-04-15T01:42:38.353Z,76.00
2023-04-15T01:43:52.503Z,76.06
2023-04-15T01:44:38.145Z,76.17
2023-04-15T01:45:37.671Z,76.10
2023-04-15T01:46:38.310Z,76.05
2023-04-15T01:47:38.058Z,76.09
2023-04-15T01:48:38.134Z,75.99
2023-04-15T01:49:37.916Z,75.75
2023-04-15T01:50:39.077Z,75.5
2023-04-15T01:51:38.275Z,75.61
2023-04-15T01:52:38.040Z,75.64
2023-04-15T01:53:37.501Z,75.55
2023-04-15T01:54:38.053Z,75.38
2023-04-15T01:55:37.898Z,75.25
2023-04-15T01:56:38.237Z,75.30
2023-04-15T01:57:37.478Z,75.28
2023-04-15T01:58:38.187Z,74.97
2023-04-15T01:59:45.624Z,74.77
2023-04-15T02:00:39.649Z,74.60
2023-04-15T02:02:00.289Z,74.45
2023-04-15T02:02:37.947Z,74.39
2023-04-15T02:03:37.929Z,74.25
2023-04-15T02:04:38.481Z,74.26
2023-04-15T02:05:38.413Z,74.42
2023-04-15T02:06:38.352Z,74.47
2023-04-15T02:07:37.820Z,74.52
2023-04-15T02:08:38.835Z,74.49
2023-04-15T02:09:38.620Z,74.48
2023-04-15T02:10:38.051Z,74.58
2023-04-15T02:11:37.443Z,74.62
2023-04-15T02:12:37.958Z,74.73
2023-04-15T02:13:38.692Z,74.75
2023-04-15T02:14:38.483Z,74.78
2023-04-15T02:15:38.038Z,74.81
2023-04-15T02:16:37.985Z,74.78
2023-04-15T02:17:37.949Z,74.76
2023-04-15T02:18:37.486Z,74.75
2023-04-15T02:19:37.742Z,74.73
2023-04-15T02:20:38.771Z,74.73
2023-04-15T02:21:38.651Z,74.87
2023-04-15T02:22:38.408Z,74.92
2023-04-15T02:23:38.061Z,74.93
2023-04-15T02:24:37.642Z,75.04
2023-04-15T02:25:38.565Z,75.11
2023-04-15T02:26:38.143Z,75.14
2023-04-15T02:27:37.650Z,75.17
2023-04-15T02:28:38.463Z,75.15
2023-04-15T02:29:38.024Z,75.21
2023-04-15T02:30:38.933Z,75.29
2023-04-15T02:31:39.096Z,75.35
2023-04-15T02:32:38.285Z,75.37
2023-04-15T02:33:38.269Z,75.38
2023-04-15T02:34:38.095Z,75.36
2023-04-15T02:36:09.510Z,75.43
2023-04-15T02:36:41.229Z,75.42
2023-04-15T02:37:37.815Z,75.40
2023-04-15T02:38:38.554Z,75.39
2023-04-15T02:39:38.280Z,75.53
2023-04-15T02:40:37.925Z,75.45
2023-04-15T02:41:38.495Z,75.47
2023-04-15T02:42:38.757Z,75.44
2023-04-15T02:43:38.690Z,75.56
2023-04-15T02:44:38.250Z,75.60
2023-04-15T02:45:37.917Z,75.62
2023-04-15T02:46:38.927Z,75.63
2023-04-15T02:47:38.949Z,75.56
2023-04-15T02:48:38.530Z,75.60
2023-04-15T02:49:38.326Z,75.75
2023-04-15T02:50:38.256Z,75.96
2023-04-15T02:51:38.323Z,76.06
2023-04-15T02:52:37.898Z,76.01
2023-04-15T02:53:38.675Z,75.94
2023-04-15T02:54:38.356Z,75.97
2023-04-15T02:55:38.276Z,76.02
2023-04-15T02:56:38.185Z,75.95
2023-04-15T02:57:38.582Z,75.99
2023-04-15T02:58:38.754Z,76.15
2023-04-15T02:59:38.558Z,76.31
2023-04-15T03:00:39.122Z,76.38
2023-04-15T03:01:38.137Z,76.40
2023-04-15T03:02:38.340Z,76.41
2023-04-15T03:03:38.510Z,76.38
2023-04-15T03:04:38.174Z,76.36
2023-04-15T03:05:37.677Z,76.33
2023-04-15T03:06:38.554Z,76.40
2023-04-15T03:07:37.760Z,76.41
2023-04-15T03:08:38.442Z,76.28
2023-04-15T03:09:38.210Z,76.27
2023-04-15T03:10:38.330Z,76.31
2023-04-15T03:11:37.687Z,76.34
2023-04-15T03:12:38.683Z,76.48
2023-04-15T03:13:38.508Z,76.53
2023-04-15T03:14:38.308Z,76.55
2023-04-15T03:15:38.302Z,76.55
2023-04-15T03:16:37.995Z,76.59
2023-04-15T03:17:37.791Z,76.67
2023-04-15T03:18:38.771Z,76.80
2023-04-15T03:19:38.578Z,76.83
2023-04-15T03:20:38.870Z,76.95
2023-04-15T03:21:38.481Z,76.97
2023-04-15T03:22:38.106Z,77.00
2023-04-15T03:23:37.984Z,76.98
2023-04-15T03:24:38.260Z,76.95
2023-04-15T03:25:38.559Z,76.92
2023-04-15T03:26:38.405Z,76.89
2023-04-15T03:27:38.253Z,76.95
2023-04-15T03:28:38.122Z,76.89
2023-04-15T03:29:37.619Z,76.95
2023-04-15T03:30:38.586Z,76.98
2023-04-15T03:31:38.340Z,76.96
2023-04-15T03:32:38.515Z,76.97
2023-04-15T03:33:38.416Z,77.09
2023-04-15T03:34:38.392Z,77.01
2023-04-15T03:35:38.491Z,76.87
2023-04-15T03:36:38.746Z,76.91
2023-04-15T03:37:38.430Z,76.86
2023-04-15T03:38:38.126Z,76.86
2023-04-15T03:39:38.101Z,76.81
2023-04-15T03:40:38.141Z,76.83
2023-04-15T03:41:37.385Z,76.95
2023-04-15T03:42:37.997Z,77.05
2023-04-15T03:43:37.781Z,77.10
2023-04-15T03:44:38.486Z,77.16
2023-04-15T03:45:38.808Z,77.21
2023-04-15T03:46:43.616Z,77.20
2023-04-15T03:48:43.267Z,77.18
2023-04-15T03:49:37.708Z,77.14
2023-04-15T03:50:38.264Z,77.20
2023-04-15T03:51:37.882Z,77.21
2023-04-15T03:52:38.348Z,77.26
2023-04-15T03:53:38.623Z,77.30
2023-04-15T03:54:39.158Z,77.34
2023-04-15T03:55:38.060Z,77.35
2023-04-15T03:56:38.117Z,77.43
2023-04-15T03:57:38.621Z,77.37
2023-04-15T03:58:38.993Z,77.33
2023-04-15T03:59:38.167Z,77.40
2023-04-15T04:00:38.830Z,77.40
2023-04-15T04:01:38.576Z,77.43
2023-04-15T04:02:39.082Z,77.46
2023-04-15T04:03:38.333Z,77.46
2023-04-15T04:04:38.633Z,77.49
2023-04-15T04:05:38.296Z,77.62
2023-04-15T04:06:37.882Z,77.60
2023-04-15T04:07:38.535Z,77.51
2023-04-15T04:08:38.541Z,77.57
2023-04-15T04:09:37.966Z,77.52
2023-04-15T04:10:38.820Z,77.54
2023-04-15T04:11:38.368Z,77.60
2023-04-15T04:12:37.988Z,77.42
2023-04-15T04:13:37.799Z,77.37
2023-04-15T04:14:38.432Z,77.24
2023-04-15T04:15:38.479Z,77.41
2023-04-15T04:16:38.915Z,77.44
2023-04-15T04:17:38.834Z,77.39
2023-04-15T04:18:38.607Z,77.43
2023-04-15T04:19:38.065Z,77.60
2023-04-15T04:20:38.098Z,77.56
2023-04-15T04:21:37.851Z,77.50
2023-04-15T04:22:38.490Z,77.41
2023-04-15T04:23:38.086Z,77.42
2023-04-15T04:25:00.459Z,77.52
2023-04-15T04:25:38.020Z,77.55
2023-04-15T04:26:37.794Z,77.44
2023-04-15T04:27:38.628Z,77.36
2023-04-15T04:28:38.640Z,77.40
2023-04-15T04:29:38.433Z,77.44
2023-04-15T04:30:38.734Z,77.43
2023-04-15T04:31:38.576Z,77.47
2023-04-15T04:32:46.475Z,77.52
2023-04-15T04:33:38.546Z,77.55
2023-04-15T04:34:38.456Z,77.50
2023-04-15T04:35:38.684Z,77.29
2023-04-15T04:36:38.465Z,77.29
2023-04-15T04:37:38.516Z,77.32
2023-04-15T04:38:39.071Z,77.30
2023-04-15T04:39:37.522Z,77.49
2023-04-15T04:40:38.367Z,77.56
2023-04-15T04:41:38.311Z,77.56
2023-04-15T04:42:39.824Z,77.62
2023-04-15T04:43:37.855Z,77.57
2023-04-15T04:44:38.753Z,77.58
2023-04-15T04:45:38.969Z,77.57
2023-04-15T04:46:39.147Z,77.58
2023-04-15T04:47:38.665Z,77.58
2023-04-15T04:48:57.550Z,77.57
2023-04-15T04:49:38.758Z,77.55
2023-04-15T04:50:38.917Z,77.60
2023-04-15T04:51:39.041Z,77.68
2023-04-15T04:52:37.843Z,77.76
2023-04-15T04:53:38.879Z,77.73
2023-04-15T04:54:38.981Z,77.97
2023-04-15T04:55:38.612Z,77.96
2023-04-15T04:56:57.808Z,78.05
2023-04-15T04:57:38.837Z,78.16
2023-04-15T04:58:38.490Z,78.16
2023-04-15T04:59:38.552Z,78.04
2023-04-15T05:00:39.839Z,77.99
2023-04-15T05:01:39.122Z,78.03
2023-04-15T05:02:38.507Z,77.93
2023-04-15T05:03:38.876Z,77.81
2023-04-15T05:04:38.718Z,77.79
2023-04-15T05:05:38.889Z,77.93
2023-04-15T05:06:38.781Z,78.09
2023-04-15T05:07:38.932Z,78.06
2023-04-15T05:08:40.424Z,78.13
2023-04-15T05:09:38.298Z,78.10
2023-04-15T05:10:38.344Z,78.02
2023-04-15T05:11:38.205Z,78.06
2023-04-15T05:12:38.166Z,78.09
2023-04-15T05:13:38.176Z,78.05
2023-04-15T05:14:38.349Z,78.10
2023-04-15T05:15:38.857Z,78.29
2023-04-15T05:16:39.362Z,78.31
2023-04-15T05:17:38.914Z,78.24
2023-04-15T05:18:39.123Z,78.17
2023-04-15T05:19:38.095Z,78.04
2023-04-15T05:20:38.737Z,78.06
2023-04-15T05:21:39.590Z,78.15
2023-04-15T05:22:39.141Z,78.06
2023-04-15T05:23:38.391Z,77.87
2023-04-15T05:24:38.872Z,77.67
2023-04-15T05:25:38.975Z,77.67
2023-04-15T05:26:38.463Z,77.63
2023-04-15T05:27:38.870Z,77.62
2023-04-15T05:28:39.237Z,77.58
2023-04-15T05:29:39.117Z,77.59
2023-04-15T05:30:39.643Z,77.60
2023-04-15T05:31:38.653Z,77.73
2023-04-15T05:32:38.914Z,77.67
2023-04-15T05:33:38.997Z,77.63
2023-04-15T05:34:37.897Z,77.59
2023-04-15T05:35:39.240Z,77.48
2023-04-15T05:36:38.171Z,77.50
2023-04-15T05:37:37.835Z,77.52
2023-04-15T05:38:39.007Z,77.45
2023-04-15T05:39:38.436Z,77.56
2023-04-15T05:40:38.712Z,77.57
2023-04-15T05:41:38.880Z,77.80
2023-04-15T05:42:39.048Z,77.80
2023-04-15T05:43:37.995Z,77.77
2023-04-15T05:44:38.244Z,77.85
2023-04-15T05:45:38.924Z,77.71
2023-04-15T05:46:38.988Z,77.72
2023-04-15T05:47:38.269Z,77.81
2023-04-15T05:48:38.357Z,78.01
2023-04-15T05:49:38.353Z,78.12
2023-04-15T05:50:38.931Z,78.11
2023-04-15T05:51:39.274Z,77.96
2023-04-15T05:52:38.518Z,77.90
2023-04-15T05:53:38.772Z,77.83
2023-04-15T05:54:39.047Z,77.79
2023-04-15T05:55:38.382Z,77.74
2023-04-15T05:56:39.169Z,77.75
2023-04-15T05:57:39.335Z,77.64
2023-04-15T05:58:39.106Z,77.62
2023-04-15T05:59:38.199Z,77.56
2023-04-15T06:00:39.547Z,77.40
2023-04-15T06:01:38.842Z,77.33
2023-04-15T06:02:39.306Z,77.29
2023-04-15T06:03:38.763Z,77.28
2023-04-15T06:04:39.189Z,77.20
2023-04-15T06:05:38.380Z,77.18
2023-04-15T06:06:38.600Z,77.22
2023-04-15T06:07:43.581Z,77.15
2023-04-15T06:08:39.031Z,77.01
2023-04-15T06:09:43.207Z,76.92
2023-04-15T06:10:38.193Z,76.95
2023-04-15T06:11:37.937Z,77.08
2023-04-15T06:12:38.969Z,77.23
2023-04-15T06:13:39.217Z,77.20
2023-04-15T06:14:38.370Z,77.33
2023-04-15T06:15:43.736Z,77.40
2023-04-15T06:16:39.152Z,77.41
2023-04-15T06:17:38.336Z,77.27
2023-04-15T06:18:38.717Z,77.29
2023-04-15T06:19:46.822Z,77.34
2023-04-15T06:20:39.333Z,77.34
2023-04-15T06:21:38.518Z,77.12
2023-04-15T06:22:38.894Z,76.98
2023-04-15T06:23:41.084Z,77.03
2023-04-15T06:24:38.326Z,77.01
2023-04-15T06:25:38.717Z,76.88
2023-04-15T06:26:38.767Z,77.00
2023-04-15T06:27:38.642Z,77.09
2023-04-15T06:28:38.763Z,77.05
2023-04-15T06:29:39.040Z,77.01
2023-04-15T06:30:39.609Z,76.88
2023-04-15T06:31:39.211Z,76.89
2023-04-15T06:32:38.548Z,76.92
2023-04-15T06:33:52.735Z,76.97
2023-04-15T06:34:38.269Z,76.87
2023-04-15T06:35:38.527Z,76.98
2023-04-15T06:36:38.647Z,77.08
2023-04-15T06:37:38.697Z,77.05
2023-04-15T06:38:39.074Z,77.17
2023-04-15T06:39:38.177Z,77.29
2023-04-15T06:40:38.645Z,77.40
2023-04-15T06:41:38.410Z,77.29
2023-04-15T06:42:38.491Z,77.22
2023-04-15T06:43:57.735Z,77.07
2023-04-15T06:44:38.628Z,77.09
2023-04-15T06:45:39.268Z,76.94
2023-04-15T06:46:38.668Z,76.95
2023-04-15T06:47:38.768Z,76.98
2023-04-15T06:48:39.352Z,76.95
2023-04-15T06:49:57.413Z,76.91
2023-04-15T06:50:38.665Z,76.85
2023-04-15T06:51:41.751Z,76.73
2023-04-15T06:52:38.853Z,76.61
2023-04-15T06:53:39.329Z,76.58
2023-04-15T06:54:38.363Z,76.56
2023-04-15T06:55:39.057Z,76.46
2023-04-15T06:56:37.631Z,76.49
2023-04-15T06:57:38.411Z,76.57
2023-04-15T06:58:38.290Z,76.51
2023-04-15T06:59:38.174Z,76.51
2023-04-15T07:00:39.636Z,76.44
2023-04-15T07:01:47.386Z,76.27
2023-04-15T07:02:39.793Z,76.18
2023-04-15T07:03:39.879Z,76.07
2023-04-15T07:04:39.585Z,76.00
2023-04-15T07:05:39.169Z,75.90
2023-04-15T07:06:38.425Z,75.66
2023-04-15T07:07:39.499Z,75.53
2023-04-15T07:08:38.949Z,75.54
2023-04-15T07:09:39.097Z,75.70
2023-04-15T07:10:40.132Z,75.51
2023-04-15T07:11:37.871Z,75.41
2023-04-15T07:12:39.208Z,75.48
2023-04-15T07:13:38.173Z,75.55
2023-04-15T07:14:38.912Z,75.40
2023-04-15T07:15:58.088Z,75.18
2023-04-15T07:16:38.246Z,75.02
2023-04-15T07:17:38.548Z,74.83
2023-04-15T07:18:38.475Z,74.77
2023-04-15T07:19:38.663Z,74.59
2023-04-15T07:20:39.255Z,74.30
2023-04-15T07:21:39.967Z,74.19
2023-04-15T07:22:38.221Z,74.03
2023-04-15T07:24:09.825Z,74.04
2023-04-15T07:24:42.973Z,73.89
2023-04-15T07:25:38.563Z,73.95
2023-04-15T07:26:39.072Z,74.01
2023-04-15T07:27:38.261Z,74.07
2023-04-15T07:28:38.606Z,74.21
2023-04-15T07:29:38.551Z,74.16
2023-04-15T07:30:39.728Z,74.09
2023-04-15T07:31:39.356Z,74.13
2023-04-15T07:32:38.496Z,73.83
2023-04-15T07:33:38.783Z,73.89
2023-04-15T07:34:38.860Z,73.97
2023-04-15T07:35:38.782Z,74.44
2023-04-15T07:36:38.615Z,74.38
2023-04-15T07:37:38.793Z,74.26
2023-04-15T07:38:38.997Z,74.30
2023-04-15T07:39:38.222Z,74.13
2023-04-15T07:40:38.279Z,74.01
2023-04-15T07:41:38.673Z,73.59
2023-04-15T07:42:41.131Z,73.58
2023-04-15T07:43:38.616Z,74.19
2023-04-15T07:44:38.963Z,74.20
2023-04-15T07:45:39.498Z,74.10
2023-04-15T07:46:39.131Z,73.98
2023-04-15T07:47:38.450Z,73.79
2023-04-15T07:48:39.383Z,73.51
2023-04-15T07:49:38.227Z,73.88
2023-04-15T07:50:38.936Z,73.94
2023-04-15T07:51:38.847Z,73.82
2023-04-15T07:52:39.191Z,73.83
2023-04-15T07:53:38.023Z,73.80
2023-04-15T07:54:38.163Z,73.68
2023-04-15T07:55:38.447Z,73.69
2023-04-15T07:56:38.301Z,73.82
2023-04-15T07:57:38.710Z,73.97
2023-04-15T07:58:39.007Z,73.91
2023-04-15T07:59:38.798Z,74.37
2023-04-15T08:00:39.504Z,74.76
2023-04-15T08:01:38.650Z,74.94
2023-04-15T08:02:40.486Z,75.20
2023-04-15T08:03:39.600Z,75.15
2023-04-15T08:04:39.342Z,75.33
2023-04-15T08:05:38.512Z,75.64
2023-04-15T08:06:38.183Z,75.37
2023-04-15T08:07:38.522Z,74.91
2023-04-15T08:08:39.033Z,74.76
2023-04-15T08:09:38.556Z,74.72
2023-04-15T08:10:39.180Z,74.88
2023-04-15T08:11:38.183Z,75.09
2023-04-15T08:12:38.112Z,74.92
2023-04-15T08:13:38.333Z,74.56
2023-04-15T08:14:38.309Z,74.34
2023-04-15T08:15:38.969Z,74.34
2023-04-15T08:16:38.546Z,74.56
2023-04-15T08:17:38.585Z,74.37
2023-04-15T08:18:38.768Z,74.34
2023-04-15T08:19:38.535Z,74.34
2023-04-15T08:20:38.507Z,74.24
2023-04-15T08:21:38.303Z,73.98
2023-04-15T08:22:38.744Z,74.16
2023-04-15T08:23:39.171Z,74.09
2023-04-15T08:24:38.154Z,74.31
2023-04-15T08:25:38.265Z,74.49
2023-04-15T08:26:38.420Z,74.47
2023-04-15T08:27:38.708Z,74.28
2023-04-15T08:28:39.273Z,74.34
2023-04-15T08:29:38.633Z,74.09
2023-04-15T08:30:39.771Z,74.10
2023-04-15T08:31:39.016Z,74.25
2023-04-15T08:32:38.867Z,74.21
2023-04-15T08:33:39.543Z,74.00
2023-04-15T08:34:43.231Z,74.20
2023-04-15T08:35:38.466Z,74.17
2023-04-15T08:36:38.719Z,74.01
2023-04-15T08:37:39.245Z,73.84
2023-04-15T08:38:38.572Z,73.85
2023-04-15T08:39:39.139Z,73.87
2023-04-15T08:40:38.964Z,73.81
2023-04-15T08:41:39.101Z,73.89
2023-04-15T08:42:38.196Z,74.11
2023-04-15T08:43:38.450Z,74.05
2023-04-15T08:44:38.104Z,73.61
2023-04-15T08:45:39.005Z,73.45
2023-04-15T08:46:38.128Z,73.36
2023-04-15T08:47:39.031Z,73.56
2023-04-15T08:48:52.538Z,73.72
2023-04-15T08:49:38.841Z,73.65
2023-04-15T08:50:52.735Z,73.65
2023-04-15T08:51:39.887Z,73.65
2023-04-15T08:52:38.926Z,73.58
2023-04-15T08:53:39.301Z,73.47
2023-04-15T08:54:38.196Z,73.47
2023-04-15T08:55:39.042Z,73.55
2023-04-15T08:56:38.408Z,73.80
2023-04-15T08:57:38.387Z,73.83
2023-04-15T08:58:39.032Z,74.08
2023-04-15T08:59:38.412Z,74.35
2023-04-15T09:00:53.746Z,74.34
2023-04-15T09:01:39.497Z,74.27
2023-04-15T09:02:39.285Z,74.20
2023-04-15T09:03:38.516Z,74.04
2023-04-15T09:04:57.676Z,74.01
2023-04-15T09:05:38.787Z,73.94
2023-04-15T09:06:39.239Z,74.03
2023-04-15T09:07:38.393Z,73.73
2023-04-15T09:08:38.280Z,73.56
2023-04-15T09:09:38.544Z,73.49
2023-04-15T09:10:38.958Z,73.54
2023-04-15T09:11:39.159Z,73.63
2023-04-15T09:12:38.139Z,73.62
2023-04-15T09:13:38.282Z,73.66
2023-04-15T09:14:38.305Z,73.58
2023-04-15T09:15:38.852Z,73.41
2023-04-15T09:16:39.456Z,73.23
2023-04-15T09:17:38.802Z,73.10
2023-04-15T09:18:39.113Z,73.14
2023-04-15T09:19:38.203Z,73.12
2023-04-15T09:20:38.993Z,73.14
2023-04-15T09:21:38.355Z,73.22
2023-04-15T09:22:38.211Z,73.29
2023-04-15T09:23:38.229Z,73.38
2023-04-15T09:24:38.600Z,73.37
2023-04-15T09:25:38.652Z,73.40
2023-04-15T09:26:38.407Z,73.56
2023-04-15T09:27:38.634Z,73.67
2023-04-15T09:28:38.766Z,73.66
2023-04-15T09:29:38.766Z,73.55
2023-04-15T09:30:39.226Z,73.55
2023-04-15T09:31:38.481Z,73.47
2023-04-15T09:32:38.705Z,73.54
2023-04-15T09:33:39.089Z,73.53
2023-04-15T09:34:38.367Z,73.57
2023-04-15T09:35:38.424Z,73.58
2023-04-15T09:36:39.092Z,73.55
2023-04-15T09:37:47.040Z,73.52
2023-04-15T09:38:38.384Z,73.61
2023-04-15T09:39:38.927Z,73.71
2023-04-15T09:40:38.828Z,73.76
2023-04-15T09:41:38.850Z,73.69
2023-04-15T09:42:38.924Z,73.65
2023-04-15T09:43:38.750Z,73.69
2023-04-15T09:44:39.157Z,73.76
2023-04-15T09:45:41.892Z,73.69
2023-04-15T09:46:38.960Z,73.66
2023-04-15T09:47:38.906Z,73.57
2023-04-15T09:48:38.462Z,73.54
2023-04-15T09:49:38.566Z,73.61
2023-04-15T09:50:39.125Z,73.74
2023-04-15T09:51:38.118Z,73.80
2023-04-15T09:52:38.043Z,73.90
2023-04-15T09:53:38.615Z,73.97
2023-04-15T09:54:38.833Z,73.94
2023-04-15T09:55:38.814Z,73.81
2023-04-15T09:56:38.717Z,73.53
2023-04-15T09:57:38.822Z,73.17
2023-04-15T09:58:38.931Z,73.05
2023-04-15T09:59:39.194Z,72.86
2023-04-15T10:00:39.963Z,72.66
2023-04-15T10:01:39.120Z,72.46
2023-04-15T10:02:38.720Z,72.09
2023-04-15T10:03:39.712Z,71.84
2023-04-15T10:04:39.226Z,71.60
2023-04-15T10:05:38.762Z,71.29
2023-04-15T10:06:39.173Z,71.05
2023-04-15T10:07:38.785Z,70.76
2023-04-15T10:08:39.208Z,70.62
2023-04-15T10:09:38.301Z,70.58
2023-04-15T10:10:39.522Z,70.34
2023-04-15T10:11:38.570Z,69.78
2023-04-15T10:12:38.999Z,69.55
2023-04-15T10:13:38.477Z,69.18
2023-04-15T10:14:39.149Z,68.86
2023-04-15T10:15:38.821Z,68.56
2023-04-15T10:16:39.607Z,68.30
2023-04-15T10:17:38.886Z,68.04
2023-04-15T10:18:39.002Z,67.48
2023-04-15T10:19:38.154Z,67.19
2023-04-15T10:20:38.897Z,66.89
2023-04-15T10:21:38.741Z,66.57
2023-04-15T10:22:38.552Z,66.34
2023-04-15T10:23:39.187Z,65.79
2023-04-15T10:24:38.357Z,65.73
2023-04-15T10:25:38.740Z,65.69
2023-04-15T10:26:39.118Z,65.81
2023-04-15T10:27:38.376Z,65.89
2023-04-15T10:28:38.604Z,65.97
2023-04-15T10:29:38.949Z,66.02
2023-04-15T10:30:39.374Z,65.73
2023-04-15T10:31:38.712Z,65.43
2023-04-15T10:32:38.891Z,65.33
2023-04-15T10:33:38.961Z,65.31
2023-04-15T10:34:39.115Z,65.24
2023-04-15T10:35:38.424Z,65.18
2023-04-15T10:36:38.564Z,64.56
2023-04-15T10:37:38.517Z,64.26
2023-04-15T10:38:38.512Z,63.82
2023-04-15T10:39:38.468Z,63.83
2023-04-15T10:40:38.835Z,63.65
2023-04-15T10:41:38.803Z,63.12
2023-04-15T10:42:39.014Z,63.00
2023-04-15T10:43:38.405Z,62.99
2023-04-15T10:44:38.565Z,63.19
2023-04-15T10:45:38.767Z,63.39
2023-04-15T10:46:39.464Z,63.32
2023-04-15T10:47:38.765Z,63.27
2023-04-15T10:48:38.967Z,63.21
2023-04-15T10:49:38.921Z,63.25
2023-04-15T10:50:39.165Z,63.36
2023-04-15T10:51:38.622Z,63.27
2023-04-15T10:52:38.609Z,63.43
2023-04-15T10:53:38.410Z,63.64
2023-04-15T10:54:38.278Z,63.71
2023-04-15T10:55:38.980Z,63.57
2023-04-15T10:56:38.565Z,63.41
2023-04-15T10:57:43.827Z,63.30
2023-04-15T10:58:38.699Z,63.15
2023-04-15T10:59:38.934Z,63.07
2023-04-15T11:00:40.595Z,63.04
2023-04-15T11:01:38.889Z,62.97
2023-04-15T11:02:39.539Z,62.99
2023-04-15T11:03:39.085Z,63.16
2023-04-15T11:04:40.953Z,63.36
2023-04-15T11:05:39.424Z,63.41
2023-04-15T11:06:38.349Z,63.54
2023-04-15T11:07:38.566Z,63.66
2023-04-15T11:08:38.587Z,63.75
2023-04-15T11:09:38.654Z,63.82
2023-04-15T11:10:39.131Z,63.81
2023-04-15T11:11:38.600Z,63.75
2023-04-15T11:12:38.776Z,63.68
2023-04-15T11:13:39.110Z,63.79
2023-04-15T11:14:39.303Z,63.84
2023-04-15T11:15:38.972Z,63.84
2023-04-15T11:16:38.227Z,63.84
2023-04-15T11:17:38.616Z,63.94
2023-04-15T11:18:39.214Z,63.88
2023-04-15T11:19:39.281Z,63.87
2023-04-15T11:20:38.755Z,63.89
2023-04-15T11:21:38.678Z,64.04
2023-04-15T11:22:38.768Z,64.13
2023-04-15T11:23:38.630Z,64.18
2023-04-15T11:24:39.360Z,64.40
2023-04-15T11:25:38.298Z,64.54
2023-04-15T11:26:38.486Z,64.53
2023-04-15T11:27:38.511Z,64.39
2023-04-15T11:28:39.225Z,64.33
2023-04-15T11:29:38.451Z,64.36
2023-04-15T11:30:38.810Z,64.33
2023-04-15T11:31:38.801Z,64.22
2023-04-15T11:32:38.968Z,64.17
2023-04-15T11:34:06.351Z,64.26
2023-04-15T11:34:41.070Z,64.33
2023-04-15T11:35:38.926Z,64.45
2023-04-15T11:36:38.875Z,64.83
2023-04-15T11:37:38.965Z,65.26
2023-04-15T11:38:39.350Z,65.99
2023-04-15T11:39:38.906Z,66.02
2023-04-15T11:40:38.936Z,66.17
2023-04-15T11:41:39.622Z,66.15
2023-04-15T11:42:49.079Z,66.19
2023-04-15T11:43:39.114Z,66.27
2023-04-15T11:44:38.951Z,66.16
2023-04-15T11:45:39.983Z,65.97
2023-04-15T11:46:39.234Z,65.80
2023-04-15T11:47:38.375Z,65.05
2023-04-15T11:48:38.292Z,63.93
2023-04-15T11:49:38.522Z,64.13
2023-04-15T11:50:39.173Z,64.26
2023-04-15T11:51:38.464Z,64.41
2023-04-15T11:52:38.793Z,63.77
2023-04-15T11:53:38.985Z,64.30
2023-04-15T11:54:38.983Z,63.72
2023-04-15T11:55:38.513Z,63.68
2023-04-15T11:56:38.432Z,63.99
2023-04-15T11:57:38.732Z,63.70
2023-04-15T11:58:39.114Z,64.11
2023-04-15T11:59:47.732Z,64.49
2023-04-15T12:00:39.706Z,64.11
2023-04-15T12:01:38.877Z,63.41
2023-04-15T12:02:38.988Z,63.97
2023-04-15T12:03:39.367Z,64.22
2023-04-15T12:04:41.092Z,63.47
2023-04-15T12:05:39.294Z,63.07
2023-04-15T12:06:38.976Z,63.07
2023-04-15T12:07:38.297Z,63.15
2023-04-15T12:08:38.175Z,63.08
2023-04-15T12:09:38.853Z,63.13
2023-04-15T12:10:39.028Z,63.06
2023-04-15T12:11:38.530Z,63.34
2023-04-15T12:12:38.638Z,63.54
2023-04-15T12:13:38.579Z,63.31
2023-04-15T12:14:38.761Z,63.42
2023-04-15T12:15:38.836Z,63.27
2023-04-15T12:16:48.823Z,63.08
2023-04-15T12:17:51.520Z,62.81
2023-04-15T12:18:38.869Z,62.73
2023-04-15T12:19:39.213Z,62.93
2023-04-15T12:20:38.882Z,63.09
2023-04-15T12:21:38.695Z,63.14
2023-04-15T12:22:38.412Z,63.34
2023-04-15T12:23:37.860Z,63.46
2023-04-15T12:24:38.766Z,63.58
2023-04-15T12:25:38.730Z,63.70
2023-04-15T12:26:37.998Z,63.67
2023-04-15T12:27:37.835Z,63.77
2023-04-15T12:28:38.754Z,63.78
2023-04-15T12:29:38.613Z,63.77
2023-04-15T12:30:38.806Z,63.72
2023-04-15T12:31:38.714Z,63.55
2023-04-15T12:32:38.455Z,63.35
2023-04-15T12:33:38.050Z,63.26
2023-04-15T12:34:37.814Z,63.27
2023-04-15T12:35:39.073Z,63.36
2023-04-15T12:36:38.474Z,63.47
2023-04-15T12:37:38.564Z,63.48
2023-04-15T12:38:38.794Z,63.49
2023-04-15T12:39:38.765Z,63.58
2023-04-15T12:40:38.842Z,63.53
2023-04-15T12:41:38.593Z,63.68
2023-04-15T12:42:39.039Z,63.75
2023-04-15T12:43:38.336Z,63.68
2023-04-15T12:44:38.547Z,63.41
2023-04-15T12:45:38.234Z,62.98
2023-04-15T12:46:38.556Z,63.02
2023-04-15T12:47:38.224Z,63.08
2023-04-15T12:48:38.080Z,63.20
2023-04-15T12:49:38.028Z,63.40
2023-04-15T12:50:38.059Z,63.62
2023-04-15T12:51:38.243Z,63.91
2023-04-15T12:52:38.566Z,63.98
2023-04-15T12:53:38.319Z,64.09